createdAt,value
2023-01-02T00:01:19.026Z,98550.34
2023-01-02T00:03:23.925Z,98542.66
2023-01-02T00:05:28.886Z,98538.56
2023-01-02T00:07:33.718Z,98533.47
2023-01-02T00:09:38.670Z,98535.47
2023-01-02T00:11:43.468Z,98543.44
2023-01-02T00:13:48.317Z,98534.75
2023-01-02T00:15:55.845Z,98533.84
2023-01-02T00:18:00.760Z,98532.22
2023-01-02T00:20:05.701Z,98530.44
2023-01-02T00:22:11.066Z,98527.78
2023-01-02T00:24:15.567Z,98530.44
2023-01-02T00:26:20.372Z,98528.72
2023-01-02T00:28:25.244Z,98513.13
2023-01-02T00:30:37.615Z,98509.66
2023-01-02T00:32:45.740Z,98507.06
2023-01-02T00:34:50.549Z,98504.38
2023-01-02T00:36:55.335Z,98497.34
2023-01-02T00:39:00.204Z,98493.00
2023-01-02T00:41:05.260Z,98491.03
2023-01-02T00:43:10.387Z,98497.75
2023-01-02T00:45:15.187Z,98498.47
2023-01-02T00:47:20.074Z,98487.78
2023-01-02T00:49:27.454Z,98487.59
2023-01-02T00:51:32.258Z,98481.47
2023-01-02T00:53:38.152Z,98493.47
2023-01-02T00:55:42.989Z,98481.16
2023-01-02T00:57:47.749Z,98476.88
2023-01-02T00:59:52.649Z,98479.25
2023-01-02T01:01:57.536Z,98464.59
2023-01-02T01:04:03.242Z,98454.16
2023-01-02T01:06:14.609Z,98460.94
2023-01-02T01:08:19.400Z,98459.19
2023-01-02T01:10:24.286Z,98459.09
2023-01-02T01:12:29.165Z,98449.47
2023-01-02T01:14:33.912Z,98457.94
2023-01-02T01:16:38.763Z,98457.72
2023-01-02T01:18:43.699Z,98460.22
2023-01-02T01:20:48.485Z,98460.97
2023-01-02T01:22:55.860Z,98456.34
2023-01-02T01:25:00.929Z,98450.25
2023-01-02T01:27:05.692Z,98448.53
2023-01-02T01:29:10.514Z,98447.63
2023-01-02T01:31:17.252Z,98444.88
2023-01-02T01:33:22.098Z,98444.88
2023-01-02T01:35:26.974Z,98455.19
2023-01-02T01:37:31.738Z,98460.22
2023-01-02T01:39:39.233Z,98456.81
2023-01-02T01:41:44.021Z,98456.72
2023-01-02T01:43:50.382Z,98457.59
2023-01-02T01:45:55.303Z,98463.56
2023-01-02T01:48:03.469Z,98459.97
2023-01-02T01:50:13.214Z,98457.31
2023-01-02T01:52:22.032Z,98456.41
2023-01-02T01:54:31.193Z,98453.72
2023-01-02T01:56:44.397Z,98452.72
2023-01-02T01:58:49.359Z,98450.34
2023-01-02T02:00:54.730Z,98447.78
2023-01-02T02:03:03.677Z,98447.16
2023-01-02T02:05:09.810Z,98448.91
2023-01-02T02:07:15.250Z,98442.94
2023-01-02T02:09:25.890Z,98445.81
2023-01-02T02:11:31.316Z,98438.31
2023-01-02T02:13:38.821Z,98445.34
2023-01-02T02:15:55.149Z,98446.44
2023-01-02T02:18:12.516Z,98438.88
2023-01-02T02:20:42.248Z,98431.28
2023-01-02T02:23:25.657Z,98426.41
2023-01-02T02:25:58.222Z,98426.72
2023-01-02T02:28:26.299Z,98435.59
2023-01-02T02:30:38.705Z,98431.34
2023-01-02T02:33:08.264Z,98422.69
2023-01-02T02:35:24.937Z,98422.97
2023-01-02T02:37:40.840Z,98422.16
2023-01-02T02:39:56.559Z,98419.63
2023-01-02T02:42:09.521Z,98422.44
2023-01-02T02:44:28.810Z,98419.03
2023-01-02T02:46:44.883Z,98415.59
2023-01-02T02:48:59.117Z,98417.41
2023-01-02T02:51:09.234Z,98412.19
2023-01-02T02:53:20.635Z,98413.13
2023-01-02T02:55:29.768Z,98408.75
2023-01-02T02:57:36.058Z,98403.63
2023-01-02T02:59:42.372Z,98402.69
2023-01-02T03:01:50.067Z,98408.81
2023-01-02T03:03:55.080Z,98399.94
2023-01-02T03:06:11.745Z,98399.94
2023-01-02T03:08:31.037Z,98395.59
2023-01-02T03:10:48.878Z,98406.00
2023-01-02T03:13:03.269Z,98395.72
2023-01-02T03:15:18.139Z,98390.44
2023-01-02T03:17:35.086Z,98396.50
2023-01-02T03:19:44.873Z,98388.75
2023-01-02T03:21:57.862Z,98387.06
2023-01-02T03:24:07.233Z,98392.41
2023-01-02T03:26:13.509Z,98389.94
2023-01-02T03:28:21.860Z,98386.34
2023-01-02T03:30:26.717Z,98382.03
2023-01-02T03:32:38.672Z,98377.81
2023-01-02T03:34:45.689Z,98376.19
2023-01-02T03:36:56.291Z,98380.47
2023-01-02T03:39:06.532Z,98377.88
2023-01-02T03:41:16.884Z,98373.44
2023-01-02T03:43:26.601Z,98375.31
2023-01-02T03:45:34.193Z,98377.03
2023-01-02T03:47:46.349Z,98372.66
2023-01-02T03:49:56.811Z,98372.63
2023-01-02T03:52:01.961Z,98373.50
2023-01-02T03:54:07.251Z,98362.28
2023-01-02T03:56:20.652Z,98365.63
2023-01-02T03:58:34.147Z,98367.97
2023-01-02T04:00:44.019Z,98368.69
2023-01-02T04:02:56.586Z,98370.19
2023-01-02T04:05:04.694Z,98372.69
2023-01-02T04:07:15.341Z,98374.47
2023-01-02T04:09:24.171Z,98371.81
2023-01-02T04:11:31.829Z,98371.72
2023-01-02T04:13:41.894Z,98375.97
2023-01-02T04:15:50.163Z,98369.91
2023-01-02T04:18:02.697Z,98367.28
2023-01-02T04:20:13.036Z,98372.59
2023-01-02T04:22:22.467Z,98369.13
2023-01-02T04:24:33.820Z,98372.59
2023-01-02T04:26:45.269Z,98383.13
2023-01-02T04:28:51.282Z,98388.41
2023-01-02T04:31:00.426Z,98387.63
2023-01-02T04:33:11.929Z,98380.91
2023-01-02T04:35:19.741Z,98393.09
2023-01-02T04:37:32.533Z,98389.72
2023-01-02T04:39:38.641Z,98390.63
2023-01-02T04:41:44.196Z,98394.16
2023-01-02T04:43:49.087Z,98402.88
2023-01-02T04:45:53.895Z,98399.44
2023-01-02T04:47:59.884Z,98394.22
2023-01-02T04:50:08.007Z,98394.16
2023-01-02T04:52:12.784Z,98386.53
2023-01-02T04:54:17.795Z,98395.06
2023-01-02T04:56:23.050Z,98388.16
2023-01-02T04:58:28.204Z,98391.75
2023-01-02T05:00:33.186Z,98393.47
2023-01-02T05:02:38.603Z,98396.13
2023-01-02T05:04:43.655Z,98392.53
2023-01-02T05:06:51.058Z,98394.28
2023-01-02T05:08:55.861Z,98393.56
2023-01-02T05:11:00.740Z,98396.28
2023-01-02T05:13:05.720Z,98387.59
2023-01-02T05:15:12.522Z,98387.59
2023-01-02T05:17:17.311Z,98392.78
2023-01-02T05:19:22.110Z,98398.06
2023-01-02T05:21:39.296Z,98392.72
2023-01-02T05:23:52.469Z,98398.78
2023-01-02T05:25:57.228Z,98402.38
2023-01-02T05:28:02.319Z,98399.78
2023-01-02T05:30:08.285Z,98395.53
2023-01-02T05:32:13.151Z,98395.78
2023-01-02T05:34:20.801Z,98386.97
2023-01-02T05:36:27.421Z,98397.41
2023-01-02T05:38:34.500Z,98398.28
2023-01-02T05:40:42.039Z,98407.94
2023-01-02T05:42:46.821Z,98402.03
2023-01-02T05:44:52.471Z,98408.94
2023-01-02T05:46:57.295Z,98406.34
2023-01-02T05:49:02.189Z,98407.31
2023-01-02T05:51:09.062Z,98407.19
2023-01-02T05:53:13.881Z,98408.88
2023-01-02T05:55:18.920Z,98412.28
2023-01-02T05:57:26.482Z,98404.38
2023-01-02T05:59:34.568Z,98409.44
2023-01-02T06:01:41.598Z,98409.44
2023-01-02T06:03:49.124Z,98398.28
2023-01-02T06:05:53.925Z,98404.50
2023-01-02T06:07:58.826Z,98399.28
2023-01-02T06:10:03.621Z,98408.81
2023-01-02T06:12:08.791Z,98403.75
2023-01-02T06:14:16.022Z,98408.28
2023-01-02T06:16:20.816Z,98414.59
2023-01-02T06:18:26.327Z,98407.63
2023-01-02T06:20:31.079Z,98419.81
2023-01-02T06:22:35.871Z,98410.28
2023-01-02T06:24:40.705Z,98407.75
2023-01-02T06:26:45.478Z,98408.34
2023-01-02T06:28:53.646Z,98409.06
2023-01-02T06:31:04.967Z,98414.16
2023-01-02T06:33:09.834Z,98413.38
2023-01-02T06:35:14.944Z,98421.31
2023-01-02T06:37:19.693Z,98416.09
2023-01-02T06:39:24.603Z,98414.47
2023-01-02T06:41:29.496Z,98423.97
2023-01-02T06:43:35.546Z,98425.81
2023-01-02T06:45:40.327Z,98422.19
2023-01-02T06:47:47.785Z,98428.16
2023-01-02T06:49:52.744Z,98435.09
2023-01-02T06:51:57.521Z,98430.00
2023-01-02T06:54:02.296Z,98431.66
2023-01-02T06:56:08.520Z,98431.53
2023-01-02T06:58:19.121Z,98430.88
2023-01-02T07:00:24.339Z,98434.34
2023-01-02T07:02:29.188Z,98435.19
2023-01-02T07:04:37.092Z,98436.09
2023-01-02T07:06:41.816Z,98433.63
2023-01-02T07:08:47.228Z,98425.00
2023-01-02T07:10:53.174Z,98431.06
2023-01-02T07:12:58.069Z,98426.78
2023-01-02T07:15:02.863Z,98421.69
2023-01-02T07:17:07.692Z,98431.09
2023-01-02T07:19:12.798Z,98428.41
2023-01-02T07:21:21.074Z,98433.66
2023-01-02T07:23:25.979Z,98437.13
2023-01-02T07:25:30.805Z,98441.31
2023-01-02T07:27:36.147Z,98443.78
2023-01-02T07:29:40.933Z,98444.53
2023-01-02T07:31:45.877Z,98440.84
2023-01-02T07:33:51.396Z,98446.06
2023-01-02T07:36:00.483Z,98448.66
2023-01-02T07:38:07.836Z,98453.75
2023-01-02T07:40:14.576Z,98448.63
2023-01-02T07:42:19.496Z,98451.94
2023-01-02T07:44:24.331Z,98450.13
2023-01-02T07:46:29.383Z,98450.03
2023-01-02T07:48:34.502Z,98454.41
2023-01-02T07:50:39.341Z,98451.00
2023-01-02T07:52:45.493Z,98453.69
2023-01-02T07:54:53.121Z,98451.00
2023-01-02T07:56:57.917Z,98459.75
2023-01-02T07:59:02.817Z,98457.97
2023-01-02T08:01:12.858Z,98456.34
2023-01-02T08:03:17.900Z,98462.44
2023-01-02T08:05:22.731Z,98458.78
2023-01-02T08:07:28.088Z,98456.19
2023-01-02T08:09:32.998Z,98461.38
2023-01-02T08:11:40.640Z,98456.97
2023-01-02T08:13:45.772Z,98457.03
2023-01-02T08:15:50.592Z,98459.50
2023-01-02T08:17:55.425Z,98471.56
2023-01-02T08:20:06.800Z,98461.91
2023-01-02T08:22:12.689Z,98465.25
2023-01-02T08:24:17.600Z,98464.13
2023-01-02T08:26:23.453Z,98468.38
2023-01-02T08:28:31.649Z,98464.81
2023-01-02T08:30:36.580Z,98464.72
2023-01-02T08:32:43.253Z,98462.81
2023-01-02T08:34:48.098Z,98473.06
2023-01-02T08:36:53.042Z,98463.34
2023-01-02T08:38:57.915Z,98471.03
2023-01-02T08:41:03.052Z,98469.03
2023-01-02T08:43:10.038Z,98471.50
2023-01-02T08:45:17.618Z,98481.69
2023-01-02T08:47:22.541Z,98480.69
2023-01-02T08:49:27.384Z,98479.06
2023-01-02T08:51:32.290Z,98482.53
2023-01-02T08:53:37.206Z,98476.50
2023-01-02T08:55:42.281Z,98484.28
2023-01-02T08:57:47.433Z,98481.47
2023-01-02T08:59:52.275Z,98483.88
2023-01-02T09:01:59.948Z,98493.16
2023-01-02T09:04:11.908Z,98494.72
2023-01-02T09:06:21.732Z,98498.03
2023-01-02T09:08:27.050Z,98491.84
2023-01-02T09:10:32.269Z,98498.56
2023-01-02T09:12:36.870Z,98500.25
2023-01-02T09:14:42.072Z,98505.31
2023-01-02T09:16:46.821Z,98501.88
2023-01-02T09:18:54.771Z,98504.16
2023-01-02T09:20:59.618Z,98512.69
2023-01-02T09:23:04.480Z,98515.06
2023-01-02T09:25:10.728Z,98518.41
2023-01-02T09:27:15.629Z,98512.97
2023-01-02T09:29:20.925Z,98509.31
2023-01-02T09:31:25.829Z,98516.03
2023-01-02T09:33:31.980Z,98515.75
2023-01-02T09:35:39.925Z,98516.41
2023-01-02T09:37:44.765Z,98518.91
2023-01-02T09:39:49.577Z,98515.31
2023-01-02T09:41:57.885Z,98517.78
2023-01-02T09:44:04.718Z,98515.00
2023-01-02T09:46:16.493Z,98507.84
2023-01-02T09:48:22.868Z,98512.13
2023-01-02T09:50:30.965Z,98509.25
2023-01-02T09:52:41.653Z,98513.41
2023-01-02T09:54:46.522Z,98506.34
2023-01-02T09:56:55.233Z,98507.97
2023-01-02T09:59:05.130Z,98513.13
2023-01-02T10:01:16.538Z,98512.28
2023-01-02T10:03:29.839Z,98517.22
2023-01-02T10:05:49.620Z,98510.91
2023-01-02T10:08:04.432Z,98506.38
2023-01-02T10:10:14.550Z,98500.00
2023-01-02T10:12:29.891Z,98495.28
2023-01-02T10:14:45.200Z,98495.97
2023-01-02T10:16:53.346Z,98509.81
2023-01-02T10:19:00.971Z,98508.88
2023-01-02T10:21:12.889Z,98508.56
2023-01-02T10:23:25.910Z,98506.56
2023-01-02T10:25:36.700Z,98501.03
2023-01-02T10:27:46.293Z,98505.25
2023-01-02T10:29:59.317Z,98513.09
2023-01-02T10:32:08.161Z,98511.19
2023-01-02T10:34:19.521Z,98498.78
2023-01-02T10:36:28.348Z,98499.63
2023-01-02T10:38:39.828Z,98504.66
2023-01-02T10:40:47.569Z,98513.25
2023-01-02T10:43:00.031Z,98512.97
2023-01-02T10:45:05.763Z,98515.25
2023-01-02T10:47:21.256Z,98508.19
2023-01-02T10:49:28.414Z,98509.72
2023-01-02T10:51:34.079Z,98501.69
2023-01-02T10:53:41.527Z,98500.63
2023-01-02T10:55:46.558Z,98502.16
2023-01-02T10:57:51.838Z,98495.09
2023-01-02T10:59:57.807Z,98499.38
2023-01-02T11:02:03.354Z,98495.66
2023-01-02T11:04:14.499Z,98490.13
2023-01-02T11:06:30.136Z,98494.19
2023-01-02T11:08:39.261Z,98490.41
2023-01-02T11:10:47.099Z,98495.47
2023-01-02T11:12:52.182Z,98496.09
2023-01-02T11:15:13.504Z,98494.06
2023-01-02T11:17:20.541Z,98487.75
2023-01-02T11:19:29.790Z,98489.03
2023-01-02T11:21:37.428Z,98486.16
2023-01-02T11:23:45.915Z,98480.50
2023-01-02T11:25:54.721Z,98481.91
2023-01-02T11:28:01.688Z,98482.31
2023-01-02T11:30:08.736Z,98486.38
2023-01-02T11:32:25.436Z,98491.13
2023-01-02T11:34:35.797Z,98485.53
2023-01-02T11:36:40.694Z,98487.56
2023-01-02T11:38:47.987Z,98487.88
2023-01-02T11:41:01.407Z,98485.56
2023-01-02T11:43:22.265Z,98494.78
2023-01-02T11:45:27.448Z,98486.75
2023-01-02T11:47:36.596Z,98485.72
2023-01-02T11:49:45.254Z,98480.66
2023-01-02T11:51:55.857Z,98481.75
2023-01-02T11:54:05.569Z,98468.56
2023-01-02T11:56:20.567Z,98465.00
2023-01-02T11:58:29.809Z,98460.22
2023-01-02T12:00:38.114Z,98472.25
2023-01-02T12:02:46.159Z,98471.97
2023-01-02T12:04:51.676Z,98479.09
2023-01-02T12:07:20.551Z,98487.03
2023-01-02T12:09:33.622Z,98495.69
2023-01-02T12:11:55.675Z,98500.09
2023-01-02T12:14:12.214Z,98495.75
2023-01-02T12:16:29.519Z,98503.44
2023-01-02T12:18:48.587Z,98490.88
2023-01-02T12:21:00.934Z,98483.75
2023-01-02T12:23:32.449Z,98491.88
2023-01-02T12:25:47.744Z,98498.56
2023-01-02T12:28:04.612Z,98496.94
2023-01-02T12:30:16.575Z,98496.28
2023-01-02T12:32:51.421Z,98497.34
2023-01-02T12:35:13.361Z,98495.56
2023-01-02T12:37:31.170Z,98497.19
2023-01-02T12:39:53.526Z,98502.19
2023-01-02T12:42:10.402Z,98498.25
2023-01-02T12:44:33.846Z,98493.13
2023-01-02T12:46:55.531Z,98493.28
2023-01-02T12:49:19.598Z,98489.19
2023-01-02T12:51:31.166Z,98491.31
2023-01-02T12:54:18.694Z,98500.44
2023-01-02T12:56:20.778Z,98501.13
2023-01-02T12:58:38.778Z,98504.47
2023-01-02T13:01:01.483Z,98508.81
2023-01-02T13:03:25.959Z,98514.97
2023-01-02T13:05:36.493Z,98513.38
2023-01-02T13:07:46.875Z,98516.88
2023-01-02T13:09:52.677Z,98516.28
2023-01-02T13:12:04.207Z,98511.88
2023-01-02T13:14:12.801Z,98517.59
2023-01-02T13:16:25.590Z,98511.50
2023-01-02T13:19:00.464Z,98519.56
2023-01-02T13:21:12.559Z,98515.13
2023-01-02T13:23:32.231Z,98512.69
2023-01-02T13:25:42.842Z,98525.44
2023-01-02T13:27:49.270Z,98528.06
2023-01-02T13:29:56.389Z,98522.44
2023-01-02T13:32:04.204Z,98518.72
2023-01-02T13:34:11.991Z,98518.25
2023-01-02T13:36:22.346Z,98510.19
2023-01-02T13:38:31.466Z,98491.81
2023-01-02T13:40:36.992Z,98502.31
2023-01-02T13:42:54.416Z,98509.31
2023-01-02T13:45:02.326Z,98511.09
2023-01-02T13:47:25.737Z,98518.59
2023-01-02T13:49:32.332Z,98511.56
2023-01-02T13:51:39.193Z,98508.78
2023-01-02T13:53:45.442Z,98521.06
2023-01-02T13:56:12.722Z,98514.84
2023-01-02T13:58:29.327Z,98534.44
2023-01-02T14:00:37.974Z,98542.50
2023-01-02T14:03:20.119Z,98543.44
2023-01-02T14:05:54.974Z,98544.47
2023-01-02T14:08:25.708Z,98543.69
2023-01-02T14:10:41.978Z,98559.19
2023-01-02T14:12:53.621Z,98564.72
2023-01-02T14:14:59.016Z,98564.72
2023-01-02T14:17:13.201Z,98565.81
2023-01-02T14:19:22.313Z,98564.53
2023-01-02T14:21:36.377Z,98570.91
2023-01-02T14:24:16.163Z,98569.38
2023-01-02T14:26:27.663Z,98562.13
2023-01-02T14:28:37.973Z,98559.94
2023-01-02T14:30:44.613Z,98561.28
2023-01-02T14:35:28.730Z,98566.19
2023-01-02T14:37:41.417Z,98574.13
2023-01-02T14:39:48.958Z,98587.25
2023-01-02T14:42:34.474Z,98581.84
2023-01-02T14:44:42.891Z,98581.16
2023-01-02T14:46:48.345Z,98582.16
2023-01-02T14:48:58.808Z,98582.22
2023-01-02T14:51:07.637Z,98588.59
2023-01-02T14:53:21.569Z,98596.06
2023-01-02T14:55:37.879Z,98604.09
2023-01-02T14:57:49.050Z,98606.16
2023-01-02T14:59:56.233Z,98614.34
2023-01-02T15:02:03.983Z,98621.53
2023-01-02T15:04:22.155Z,98622.69
2023-01-02T15:06:41.704Z,98619.50
2023-01-02T15:08:52.626Z,98625.84
2023-01-02T15:11:25.995Z,98629.09
2023-01-02T15:13:28.462Z,98623.00
2023-01-02T15:15:37.600Z,98623.75
2023-01-02T15:17:43.550Z,98640.56
2023-01-02T15:20:09.933Z,98637.41
2023-01-02T15:22:18.978Z,98641.47
2023-01-02T15:24:26.271Z,98636.75
2023-01-02T15:26:35.509Z,98631.22
2023-01-02T15:28:40.346Z,98631.00
2023-01-02T15:30:45.749Z,98645.84
2023-01-02T15:32:51.627Z,98646.72
2023-01-02T15:35:11.678Z,98644.38
2023-01-02T15:37:17.082Z,98651.53
2023-01-02T15:39:26.693Z,98653.38
2023-01-02T15:41:34.346Z,98657.03
2023-01-02T15:43:54.868Z,98653.31
2023-01-02T15:46:00.073Z,98653.94
2023-01-02T15:48:06.950Z,98656.88
2023-01-02T15:50:18.705Z,98670.34
2023-01-02T15:52:26.811Z,98669.50
2023-01-02T15:54:36.118Z,98664.34
2023-01-02T15:56:46.408Z,98680.63
2023-01-02T15:58:52.617Z,98671.03
2023-01-02T16:01:14.028Z,98682.22
2023-01-02T16:04:01.994Z,98681.47
2023-01-02T16:06:15.210Z,98684.22
2023-01-02T16:08:23.741Z,98690.38
2023-01-02T16:10:56.355Z,98687.16
2023-01-02T16:13:27.486Z,98688.31
2023-01-02T16:15:35.044Z,98695.00
2023-01-02T16:17:41.995Z,98691.81
2023-01-02T16:19:59.027Z,98689.59
2023-01-02T16:22:10.439Z,98689.50
2023-01-02T16:24:20.818Z,98697.50
2023-01-02T16:26:33.641Z,98698.63
2023-01-02T16:28:46.694Z,98709.50
2023-01-02T16:30:52.313Z,98709.63
2023-01-02T16:32:57.787Z,98700.31
2023-01-02T16:35:21.497Z,98709.00
2023-01-02T16:37:34.336Z,98701.50
2023-01-02T16:39:48.827Z,98705.06
2023-01-02T16:42:13.075Z,98704.34
2023-01-02T16:44:21.812Z,98705.53
2023-01-02T16:46:26.657Z,98709.38
2023-01-02T16:48:32.821Z,98704.22
2023-01-02T16:50:43.770Z,98707.66
2023-01-02T16:52:48.974Z,98711.06
2023-01-02T16:54:54.479Z,98716.44
2023-01-02T16:56:59.532Z,98717.13
2023-01-02T16:59:04.809Z,98713.47
2023-01-02T17:01:15.292Z,98718.56
2023-01-02T17:03:22.339Z,98720.19
2023-01-02T17:05:33.039Z,98721.94
2023-01-02T17:07:37.851Z,98722.03
2023-01-02T17:09:42.633Z,98730.72
2023-01-02T17:12:00.368Z,98722.09
2023-01-02T17:14:08.161Z,98722.09
2023-01-02T17:16:16.013Z,98725.47
2023-01-02T17:18:21.194Z,98733.28
2023-01-02T17:20:26.396Z,98735.00
2023-01-02T17:22:34.837Z,98744.72
2023-01-02T17:24:39.767Z,98745.63
2023-01-02T17:26:44.705Z,98754.41
2023-01-02T17:28:49.588Z,98746.56
2023-01-02T17:30:54.919Z,98750.78
2023-01-02T17:33:04.370Z,98751.50
2023-01-02T17:35:10.547Z,98747.41
2023-01-02T17:37:15.426Z,98745.41
2023-01-02T17:39:20.339Z,98742.72
2023-01-02T17:41:25.326Z,98753.19
2023-01-02T17:43:30.232Z,98755.75
2023-01-02T17:45:35.686Z,98758.25
2023-01-02T17:50:10.773Z,98765.91
2023-01-02T17:52:15.594Z,98760.88
2023-01-02T17:54:21.468Z,98768.69
2023-01-02T17:56:27.224Z,98764.22
2023-01-02T17:58:32.339Z,98769.31
2023-01-02T18:00:38.172Z,98761.53
2023-01-02T18:02:44.063Z,98767.00
2023-01-02T18:04:54.967Z,98764.44
2023-01-02T18:07:07.656Z,98775.03
2023-01-02T18:09:12.870Z,98781.06
2023-01-02T18:11:19.719Z,98782.69
2023-01-02T18:13:24.562Z,98785.59
2023-01-02T18:15:29.528Z,98788.97
2023-01-02T18:17:34.348Z,98789.19
2023-01-02T18:19:39.256Z,98784.38
2023-01-02T18:21:45.610Z,98793.97
2023-01-02T18:23:57.500Z,98795.88
2023-01-02T18:26:03.061Z,98797.63
2023-01-02T18:28:25.262Z,98790.72
2023-01-02T18:30:30.429Z,98794.09
2023-01-02T18:32:36.249Z,98793.47
2023-01-02T18:34:48.126Z,98797.78
2023-01-02T18:36:54.723Z,98796.09
2023-01-02T18:39:12.712Z,98799.06
2023-01-02T18:41:21.544Z,98790.50
2023-01-02T18:43:35.894Z,98795.72
2023-01-02T18:45:43.631Z,98807.13
2023-01-02T18:47:49.852Z,98816.13
2023-01-02T18:49:55.491Z,98811.22
2023-01-02T18:52:09.809Z,98815.72
2023-01-02T18:54:32.071Z,98826.91
2023-01-02T18:56:38.280Z,98823.78
2023-01-02T18:58:47.291Z,98828.78
2023-01-02T19:00:53.633Z,98846.66
2023-01-02T19:03:03.264Z,98846.72
2023-01-02T19:05:22.075Z,98848.22
2023-01-02T19:07:31.849Z,98860.66
2023-01-02T19:09:40.469Z,98855.47
2023-01-02T19:11:58.396Z,98864.22
2023-01-02T19:14:13.535Z,98862.53
2023-01-02T19:16:22.356Z,98864.22
2023-01-02T19:18:41.814Z,98871.34
2023-01-02T19:20:48.349Z,98867.81
2023-01-02T19:22:53.689Z,98873.97
2023-01-02T19:25:06.041Z,98872.19
2023-01-02T19:27:22.317Z,98881.03
2023-01-02T19:29:29.026Z,98885.41
2023-01-02T19:31:45.824Z,98896.81
2023-01-02T19:33:55.177Z,98895.84
2023-01-02T19:36:02.667Z,98905.38
2023-01-02T19:38:22.212Z,98909.72
2023-01-02T19:40:29.662Z,98919.28
2023-01-02T19:42:35.778Z,98920.34
2023-01-02T19:44:40.687Z,98924.91
2023-01-02T19:46:45.907Z,98930.22
2023-01-02T19:48:50.457Z,98938.34
2023-01-02T19:50:55.623Z,98935.63
2023-01-02T19:53:00.200Z,98954.94
2023-01-02T19:55:07.794Z,98956.41
2023-01-02T19:57:17.635Z,98951.34
2023-01-02T19:59:22.538Z,98952.31
2023-01-02T20:01:27.640Z,98958.75
2023-01-02T20:03:32.678Z,98968.72
2023-01-02T20:05:37.484Z,98983.66
2023-01-02T20:07:42.354Z,98986.41
2023-01-02T20:09:47.637Z,98992.31
2023-01-02T20:12:07.725Z,98985.63
2023-01-02T20:14:15.309Z,98989.03
2023-01-02T20:16:20.188Z,99000.09
2023-01-02T20:18:24.988Z,99008.25
2023-01-02T20:20:30.047Z,99015.38
2023-01-02T20:22:36.013Z,99023.25
2023-01-02T20:24:42.124Z,99022.38
2023-01-02T20:26:48.198Z,99027.56
2023-01-02T20:28:53.087Z,99018.53
2023-01-02T20:31:00.746Z,99021.34
2023-01-02T20:33:05.799Z,99022.38
2023-01-02T20:35:11.495Z,99024.28
2023-01-02T20:37:21.497Z,99029.69
2023-01-02T20:39:26.848Z,99034.09
2023-01-02T20:41:34.717Z,99040.41
2023-01-02T20:43:39.547Z,99045.56
2023-01-02T20:45:44.365Z,99048.28
2023-01-02T20:47:51.961Z,99064.84
2023-01-02T20:49:56.920Z,99067.47
2023-01-02T20:52:03.694Z,99074.44
2023-01-02T20:54:10.172Z,99076.00
2023-01-02T20:56:15.143Z,99068.34
2023-01-02T20:58:20.367Z,99065.84
2023-01-02T21:00:25.253Z,99077.59
2023-01-02T21:02:30.643Z,99078.69
2023-01-02T21:04:38.732Z,99081.47
2023-01-02T21:06:47.043Z,99081.50
2023-01-02T21:08:51.968Z,99085.75
2023-01-02T21:10:56.898Z,99082.81
2023-01-02T21:13:11.042Z,99082.84
2023-01-02T21:15:36.809Z,99079.50
2023-01-02T21:17:41.704Z,99089.97
2023-01-02T21:19:51.757Z,99092.66
2023-01-02T21:21:56.570Z,99094.59
2023-01-02T21:24:01.670Z,99094.69
2023-01-02T21:26:10.029Z,99097.47
2023-01-02T21:28:18.107Z,99106.44
2023-01-02T21:30:22.908Z,99107.41
2023-01-02T21:32:27.855Z,99110.03
2023-01-02T21:34:35.245Z,99117.88
2023-01-02T21:36:42.831Z,99111.66
2023-01-02T21:38:47.910Z,99113.50
2023-01-02T21:40:53.039Z,99117.88
2023-01-02T21:42:55.674Z,99114.72
2023-01-02T21:45:01.080Z,99119.66
2023-01-02T21:47:05.961Z,99122.25
2023-01-02T21:49:10.927Z,99124.88
2023-01-02T21:51:16.004Z,99122.44
2023-01-02T21:53:23.414Z,99128.34
2023-01-02T21:55:28.641Z,99128.25
2023-01-02T21:58:11.190Z,99133.56
2023-01-02T21:59:59.191Z,99140.41
2023-01-02T22:02:06.682Z,99144.03
2023-01-02T22:04:11.936Z,99139.75
2023-01-02T22:06:18.350Z,99138.06
2023-01-02T22:08:25.853Z,99137.16
2023-01-02T22:10:30.998Z,99134.22
2023-01-02T22:12:36.038Z,99134.94
2023-01-02T22:14:42.198Z,99143.63
2023-01-02T22:16:47.179Z,99146.91
2023-01-02T22:18:52.098Z,99148.66
2023-01-02T22:20:56.912Z,99152.84
2023-01-02T22:23:01.754Z,99149.44
2023-01-02T22:25:10.358Z,99147.78
2023-01-02T22:27:17.424Z,99150.59
2023-01-02T22:29:29.277Z,99162.94
2023-01-02T22:31:43.855Z,99171.78
2023-01-02T22:33:48.939Z,99164.03
2023-01-02T22:35:53.765Z,99171.09
2023-01-02T22:37:59.625Z,99180.78
2023-01-02T22:40:04.660Z,99199.31
2023-01-02T22:42:59.570Z,99198.50
2023-01-02T22:44:58.212Z,99198.13
2023-01-02T22:47:03.132Z,99202.56
2023-01-02T22:49:08.027Z,99202.00
2023-01-02T22:51:15.676Z,99204.44
2023-01-02T22:53:23.119Z,99204.50
2023-01-02T22:55:27.893Z,99202.81
2023-01-02T22:57:35.303Z,99207.88
2023-01-02T22:59:40.358Z,99215.94
2023-01-02T23:01:47.978Z,99209.72
2023-01-02T23:03:53.338Z,99222.63
2023-01-02T23:05:58.382Z,99227.91
2023-01-02T23:08:03.235Z,99227.28
2023-01-02T23:10:11.092Z,99233.16
2023-01-02T23:12:16.086Z,99229.06
2023-01-02T23:14:26.532Z,99242.25
2023-01-02T23:16:43.729Z,99234.34
2023-01-02T23:19:01.087Z,99241.38
2023-01-02T23:21:10.709Z,99237.91
2023-01-02T23:23:15.515Z,99231.66
2023-01-02T23:25:20.729Z,99231.66
2023-01-02T23:27:25.557Z,99229.78
2023-01-02T23:29:32.987Z,99236.78
2023-01-02T23:31:39.961Z,99241.22
2023-01-02T23:33:44.917Z,99251.63
2023-01-02T23:35:51.379Z,99248.41
2023-01-02T23:37:56.255Z,99249.31
2023-01-02T23:40:01.092Z,99263.38
2023-01-02T23:42:06.063Z,99265.94
2023-01-02T23:44:11.845Z,99273.97
2023-01-02T23:46:19.306Z,99277.56
2023-01-02T23:48:24.987Z,99257.50
2023-01-02T23:50:29.814Z,99248.69
2023-01-02T23:52:34.625Z,99260.78
2023-01-02T23:54:39.393Z,99260.81
2023-01-02T23:56:47.281Z,99272.91
2023-01-02T23:58:54.433Z,99288.84
